Time;durP1;ratioP1;P1;durP2;ratioP2;P2;SDS_P1;SDS_P2;PMS_P1;PMS_P2;Temp;Humidity;BMP_temperature;BMP_pressure;BME280_temperature;BME280_humidity;BME280_pressure;Samples;Min_cycle;Max_cycle;Signal;HPM_P1;HPM_P2
2022/06/18 00:00:56;;;;;;;5.28;3.30;;;;;;;17.50;71.53;101453.00;5030481;28;20287;-48
2022/06/18 00:03:25;;;;;;;4.88;3.05;;;;;;;17.59;70.99;101459.72;5028670;28;20239;-49
2022/06/18 00:05:54;;;;;;;4.13;3.13;;;;;;;17.54;71.15;101448.28;5030060;28;20227;-49
2022/06/18 00:08:26;;;;;;;5.72;3.30;;;;;;;17.55;71.31;101450.00;5030295;28;20180;-51
2022/06/18 00:13:47;;;;;;;5.05;3.13;;;;;;;17.55;71.00;101441.88;5030228;28;20271;-48
2022/06/18 00:16:17;;;;;;;5.03;3.25;;;;;;;17.55;71.01;101441.88;5029810;28;20615;-50
2022/06/18 00:18:43;;;;;;;2.97;2.75;;;;;;;17.55;70.61;101428.34;5029872;28;20362;-49
2022/06/18 00:21:15;;;;;;;6.13;3.05;;;;;;;17.62;70.41;101419.78;5030016;28;20736;-51
2022/06/18 00:23:41;;;;;;;4.82;3.03;;;;;;;17.68;69.75;101413.97;5030210;28;20234;-49
2022/06/18 00:26:06;;;;;;;5.82;3.15;;;;;;;17.60;70.09;101409.97;5029538;28;20196;-46
2022/06/18 00:28:32;;;;;;;7.15;3.15;;;;;;;17.65;69.96;101403.31;5030118;28;20156;-47
2022/06/18 00:30:58;;;;;;;6.63;2.80;;;;;;;17.65;70.03;101416.00;5029972;28;20184;-46
2022/06/18 00:33:25;;;;;;;3.88;3.10;;;;;;;17.74;69.67;101403.75;5027969;28;20172;-47
2022/06/18 00:35:57;;;;;;;4.65;2.97;;;;;;;17.71;69.71;101410.22;5028366;28;20711;-46
2022/06/18 00:38:40;;;;;;;6.22;3.17;;;;;;;17.74;69.53;101396.47;5030075;28;20194;-45
2022/06/18 00:41:07;;;;;;;4.15;2.80;;;;;;;17.80;69.18;101392.53;5029851;28;20192;-45
2022/06/18 00:43:39;;;;;;;3.63;2.83;;;;;;;17.79;69.28;101396.22;5029581;28;20187;-47
2022/06/18 00:46:46;;;;;;;6.68;2.80;;;;;;;17.85;68.73;101385.03;5028025;28;20203;-46
2022/06/18 00:49:27;;;;;;;3.17;2.88;;;;;;;17.84;68.71;101383.28;4983547;28;20268;-47
2022/06/18 00:51:57;;;;;;;3.33;2.88;;;;;;;17.82;68.75;101385.22;5028034;28;20267;-46
2022/06/18 00:54:36;;;;;;;4.05;3.10;;;;;;;17.83;68.80;101381.53;5027605;28;20172;-45
2022/06/18 00:57:11;;;;;;;4.47;2.83;;;;;;;17.79;68.78;101379.94;5029417;28;20790;-47
2022/06/18 00:59:55;;;;;;;2.78;2.55;;;;;;;17.79;68.53;101386.22;5028490;28;20202;-47
2022/06/18 01:02:26;;;;;;;5.07;2.60;;;;;;;17.74;68.99;101380.22;5028777;28;20184;-44
2022/06/18 01:04:52;;;;;;;3.90;2.90;;;;;;;17.69;68.91;101379.63;5027780;28;20196;-45
2022/06/18 01:07:29;;;;;;;3.58;2.90;;;;;;;17.73;68.64;101375.75;5029993;28;20191;-47
2022/06/18 01:09:55;;;;;;;4.72;3.03;;;;;;;17.67;68.70;101370.72;5027829;28;20218;-46
2022/06/18 01:12:23;;;;;;;4.63;2.47;;;;;;;17.65;68.74;101370.81;5027992;28;20264;-45
2022/06/18 01:14:56;;;;;;;3.35;2.75;;;;;;;17.69;68.65;101366.09;5028814;28;20208;-44
2022/06/18 01:17:22;;;;;;;3.45;2.55;;;;;;;17.71;68.30;101364.16;5028239;28;20187;-45
2022/06/18 01:19:50;;;;;;;3.45;2.65;;;;;;;17.66;68.76;101360.84;5029502;28;20164;-47
2022/06/18 01:22:52;;;;;;;3.40;2.80;;;;;;;17.66;68.49;101350.00;5027944;28;20208;-47
2022/06/18 01:25:18;;;;;;;6.03;2.60;;;;;;;17.64;68.53;101352.78;5028174;28;20204;-44
2022/06/18 01:27:48;;;;;;;2.97;2.78;;;;;;;17.60;68.94;101350.34;5027951;28;20180;-45
2022/06/18 01:30:25;;;;;;;3.47;2.55;;;;;;;17.70;68.48;101348.84;5028103;28;20216;-45
2022/06/18 01:32:54;;;;;;;4.30;2.40;;;;;;;17.70;68.24;101351.56;5027838;28;20196;-45
2022/06/18 01:35:23;;;;;;;7.15;2.80;;;;;;;17.75;67.87;101335.00;5027720;28;20188;-45
2022/06/18 01:37:58;;;;;;;2.58;2.38;;;;;;;17.66;68.52;101336.44;5029178;28;20222;-45
2022/06/18 01:44:16;;;;;;;8.02;3.00;;;;;;;17.72;68.01;101314.41;4973821;28;20603;-45
2022/06/18 01:46:46;;;;;;;3.35;2.83;;;;;;;17.66;67.95;101310.22;5032559;28;20768;-46
2022/06/18 01:49:20;;;;;;;5.82;2.70;;;;;;;17.62;68.28;101296.94;5031315;28;20192;-46
2022/06/18 01:51:48;;;;;;;3.15;2.80;;;;;;;17.61;68.16;101295.22;5031278;28;20547;-46
2022/06/18 01:54:22;;;;;;;3.60;2.38;;;;;;;17.60;68.56;101283.50;5030834;28;20222;-46
2022/06/18 01:56:56;;;;;;;2.60;2.40;;;;;;;17.66;68.08;101287.66;5013742;28;20228;-44
2022/06/18 01:59:29;;;;;;;3.13;2.50;;;;;;;17.64;68.07;101274.19;5010715;28;20226;-46
2022/06/18 02:01:57;;;;;;;3.45;2.60;;;;;;;17.62;68.29;101283.38;5010528;28;20195;-46
2022/06/18 02:04:26;;;;;;;7.07;2.45;;;;;;;17.65;68.24;101292.22;5011036;28;20177;-47
2022/06/18 02:06:52;;;;;;;3.17;2.50;;;;;;;17.61;68.16;101289.78;5011556;28;20721;-47
2022/06/18 02:09:45;;;;;;;3.55;2.30;;;;;;;17.68;68.02;101281.19;5012489;28;20596;-46
2022/06/18 02:12:15;;;;;;;2.47;2.28;;;;;;;17.71;68.09;101299.13;5012262;28;20525;-45
2022/06/18 02:14:44;;;;;;;4.07;2.40;;;;;;;17.70;67.91;101295.50;5010260;28;20169;-47
2022/06/18 02:17:12;;;;;;;4.47;2.60;;;;;;;17.70;67.72;101290.09;5010362;28;20670;-45
2022/06/18 02:19:39;;;;;;;4.95;2.88;;;;;;;17.63;68.07;101294.16;5011876;28;20189;-45
2022/06/18 02:22:08;;;;;;;2.92;2.55;;;;;;;17.63;68.34;101298.69;5010799;28;20203;-46
2022/06/18 02:24:34;;;;;;;2.97;2.25;;;;;;;17.56;68.88;101287.34;5010389;28;20666;-47
2022/06/18 02:26:59;;;;;;;4.13;2.63;;;;;;;17.50;69.22;101287.72;5011454;28;20286;-44
2022/06/18 02:29:29;;;;;;;4.55;2.70;;;;;;;17.30;70.32;101286.22;5012187;28;20731;-46
2022/06/18 02:31:55;;;;;;;3.78;2.65;;;;;;;17.40;69.42;101295.50;5010180;28;20559;-45
2022/06/18 02:34:26;;;;;;;2.35;2.13;;;;;;;17.44;69.25;101298.91;5010081;28;20175;-45
2022/06/18 02:36:54;;;;;;;3.72;2.40;;;;;;;17.48;68.87;101295.06;5010778;28;20255;-45
2022/06/18 02:39:39;;;;;;;3.25;2.33;;;;;;;17.49;69.21;101296.78;5010219;28;20179;-47
2022/06/18 02:42:12;;;;;;;8.43;2.97;;;;;;;17.38;69.61;101283.03;5011554;28;20196;-45
2022/06/18 02:44:41;;;;;;;3.42;2.75;;;;;;;17.37;69.61;101282.16;5009639;28;20558;-46
2022/06/18 02:47:08;;;;;;;3.90;2.55;;;;;;;17.41;69.56;101289.16;5012001;28;20167;-44
2022/06/18 02:49:37;;;;;;;3.92;2.80;;;;;;;17.34;69.44;101276.94;5030452;28;20275;-46
2022/06/18 02:52:05;;;;;;;5.53;2.22;;;;;;;17.23;70.05;101282.09;5031183;28;20172;-46
2022/06/18 02:54:31;;;;;;;2.67;2.45;;;;;;;17.13;70.76;101289.03;5029387;28;20180;-47
2022/06/18 02:57:03;;;;;;;2.65;2.45;;;;;;;17.22;70.55;101285.78;5029770;28;20493;-45
2022/06/18 02:59:30;;;;;;;3.80;2.78;;;;;;;17.12;71.29;101281.84;5029928;28;20610;-46
2022/06/18 03:01:56;;;;;;;3.25;2.60;;;;;;;17.17;70.96;101283.34;5029585;28;20232;-46
2022/06/18 03:04:23;;;;;;;4.07;2.40;;;;;;;17.18;70.48;101274.25;5029281;28;20167;-48
2022/06/18 03:06:48;;;;;;;2.90;2.40;;;;;;;17.21;70.87;101274.09;5029399;28;20262;-48
2022/06/18 03:09:14;;;;;;;3.05;2.63;;;;;;;17.18;70.27;101268.81;5029502;28;20330;-47
2022/06/18 03:14:23;;;;;;;3.70;2.45;;;;;;;17.11;71.07;101263.88;5029267;28;20199;-46
2022/06/18 03:16:49;;;;;;;2.53;2.33;;;;;;;17.08;71.75;101265.81;5029848;28;20202;-44
2022/06/18 03:19:33;;;;;;;2.65;2.45;;;;;;;17.11;71.43;101259.31;5030807;28;20183;-46
2022/06/18 03:22:09;;;;;;;5.65;2.53;;;;;;;17.11;71.24;101264.75;5029738;28;20603;-46
2022/06/18 03:24:35;;;;;;;2.88;2.60;;;;;;;17.04;71.43;101261.53;5030385;28;20152;-46
2022/06/18 03:27:02;;;;;;;2.88;2.67;;;;;;;17.08;71.17;101264.94;5029648;28;20262;-47
2022/06/18 03:29:28;;;;;;;2.97;2.58;;;;;;;17.08;71.26;101259.53;5030377;28;20347;-45
2022/06/18 03:31:53;;;;;;;2.67;2.30;;;;;;;17.00;71.95;101262.66;5030469;28;20173;-46
2022/06/18 03:34:21;;;;;;;3.17;2.22;;;;;;;17.09;71.39;101258.53;5029026;28;20199;-45
2022/06/18 03:36:46;;;;;;;2.75;2.33;;;;;;;17.03;71.80;101256.19;5029108;28;20281;-45
2022/06/18 03:39:12;;;;;;;4.78;2.85;;;;;;;17.09;71.46;101262.13;5031071;28;20160;-47
2022/06/18 03:41:38;;;;;;;4.05;2.58;;;;;;;17.16;71.62;101253.63;5029356;28;20192;-48
2022/06/18 03:44:04;;;;;;;2.92;2.58;;;;;;;17.11;72.30;101255.75;5028224;28;20270;-46
2022/06/18 03:46:30;;;;;;;2.90;2.35;;;;;;;17.11;71.90;101259.31;5029223;28;20207;-47
2022/06/18 03:49:00;;;;;;;2.92;2.60;;;;;;;17.16;71.74;101250.94;5028620;28;20187;-47
2022/06/18 03:51:30;;;;;;;2.85;2.45;;;;;;;17.18;71.69;101243.59;5029088;28;20258;-47
2022/06/18 03:53:59;;;;;;;2.92;2.70;;;;;;;17.17;72.07;101242.72;5007680;28;20181;-46
2022/06/18 03:56:30;;;;;;;3.33;2.63;;;;;;;17.19;71.93;101242.66;5007996;28;20588;-45
2022/06/18 03:58:57;;;;;;;3.38;2.85;;;;;;;17.19;72.22;101245.34;5009400;28;20172;-46
2022/06/18 04:01:25;;;;;;;3.03;2.40;;;;;;;17.23;71.96;101252.31;5008398;28;20215;-47
2022/06/18 04:03:52;;;;;;;4.28;2.60;;;;;;;17.14;73.15;101259.13;5008980;28;20184;-45
2022/06/18 04:06:39;;;;;;;6.20;2.97;;;;;;;17.21;72.48;101254.25;5005536;28;20633;-47
2022/06/18 04:09:25;;;;;;;4.10;2.60;;;;;;;17.18;73.15;101267.97;5002482;28;20188;-46
2022/06/18 04:11:51;;;;;;;3.72;2.72;;;;;;;17.29;72.44;101266.38;5008920;28;20173;-44
2022/06/18 04:14:16;;;;;;;3.25;2.92;;;;;;;17.38;72.12;101264.06;5008503;28;20184;-44
2022/06/18 04:16:57;;;;;;;4.05;2.65;;;;;;;17.32;72.52;101262.63;5008936;28;20643;-47
2022/06/18 04:19:23;;;;;;;3.58;2.60;;;;;;;17.32;72.85;101259.91;5008696;28;20177;-46
2022/06/18 04:21:51;;;;;;;3.00;2.67;;;;;;;17.44;72.49;101252.88;5009125;28;20295;-45
2022/06/18 04:24:18;;;;;;;4.78;2.53;;;;;;;17.49;72.62;101248.03;5008265;28;20548;-45
2022/06/18 04:26:47;;;;;;;7.55;2.70;;;;;;;17.45;72.80;101258.19;5008834;28;20201;-47
2022/06/18 04:29:13;;;;;;;6.05;3.00;;;;;;;17.42;73.16;101265.63;5008788;28;20207;-48
2022/06/18 04:31:39;;;;;;;3.20;2.90;;;;;;;17.49;72.88;101267.91;5008906;28;20188;-46
2022/06/18 04:34:05;;;;;;;3.75;3.05;;;;;;;17.47;73.73;101255.38;5008259;28;20172;-48
2022/06/18 04:36:57;;;;;;;4.60;3.10;;;;;;;17.48;73.19;101247.16;5001541;28;20196;-46
2022/06/18 04:39:35;;;;;;;4.43;3.05;;;;;;;17.55;73.58;101250.38;5009025;28;20207;-47
2022/06/18 04:42:32;;;;;;;5.47;3.30;;;;;;;17.56;73.23;101248.53;4997447;28;20247;-45
2022/06/18 04:44:59;;;;;;;5.07;3.80;;;;;;;17.66;73.20;101257.84;5008422;28;20199;-46
2022/06/18 04:47:31;;;;;;;3.80;2.95;;;;;;;17.71;72.92;101247.63;5008444;28;20424;-45
2022/06/18 04:49:59;;;;;;;3.03;2.80;;;;;;;17.74;72.82;101254.69;5008513;28;20263;-46
2022/06/18 04:52:25;;;;;;;3.88;3.08;;;;;;;17.79;73.99;101255.25;5008721;28;20260;-48
2022/06/18 04:54:56;;;;;;;6.22;3.30;;;;;;;17.85;73.55;101236.81;5024496;28;20232;-45
2022/06/18 04:57:22;;;;;;;3.28;2.70;;;;;;;17.92;73.11;101242.72;5008466;28;20596;-45
2022/06/18 04:59:49;;;;;;;4.75;2.83;;;;;;;17.99;72.92;101260.34;5008300;28;20475;-47
2022/06/18 05:02:22;;;;;;;5.18;3.20;;;;;;;18.09;72.57;101250.66;5025006;28;20408;-47
2022/06/18 05:04:58;;;;;;;3.90;3.20;;;;;;;18.17;72.33;101246.59;5007878;28;20279;-47
2022/06/18 05:07:53;;;;;;;5.50;2.95;;;;;;;18.31;72.64;101239.31;5004887;28;20189;-47
2022/06/18 05:10:39;;;;;;;4.00;3.28;;;;;;;18.44;72.46;101242.13;4998541;28;20180;-47
2022/06/18 05:13:12;;;;;;;4.63;3.17;;;;;;;18.42;72.11;101238.63;5011077;28;20259;-47
2022/06/18 05:15:47;;;;;;;3.72;3.10;;;;;;;18.43;72.77;101244.94;5013901;28;20209;-46
2022/06/18 05:18:16;;;;;;;5.60;3.55;;;;;;;18.60;73.14;101251.97;5011983;28;20429;-47
2022/06/18 05:20:49;;;;;;;5.93;3.30;;;;;;;18.64;72.52;101259.81;5012143;28;20224;-47
2022/06/18 05:23:15;;;;;;;4.60;3.42;;;;;;;18.59;72.56;101248.41;5013182;28;20276;-46
2022/06/18 05:25:41;;;;;;;4.68;3.38;;;;;;;18.73;72.51;101247.50;5013578;28;20283;-46
2022/06/18 05:28:10;;;;;;;5.22;3.47;;;;;;;18.87;72.21;101239.34;5011660;28;20219;-46
2022/06/18 05:30:37;;;;;;;5.68;3.47;;;;;;;18.87;72.27;101239.34;5012204;28;20671;-45
2022/06/18 05:33:04;;;;;;;3.92;3.40;;;;;;;18.82;71.86;101229.75;5011983;28;20176;-45
2022/06/18 05:35:38;;;;;;;5.18;3.25;;;;;;;19.02;72.31;101222.97;5011710;28;20201;-46
2022/06/18 05:38:04;;;;;;;3.70;3.40;;;;;;;18.99;72.56;101228.63;5011908;28;20176;-46
2022/06/18 05:40:30;;;;;;;3.75;3.45;;;;;;;19.05;72.64;101217.38;5011410;28;20168;-47
2022/06/18 05:42:55;;;;;;;5.25;3.55;;;;;;;19.04;72.80;101231.91;5027877;28;20682;-46
2022/06/18 05:45:22;;;;;;;5.93;4.10;;;;;;;19.19;73.38;101221.84;5011297;28;20197;-46
2022/06/18 05:47:48;;;;;;;5.47;3.30;;;;;;;19.30;72.75;101219.25;5012297;28;20176;-44
2022/06/18 05:50:18;;;;;;;5.65;3.85;;;;;;;19.37;73.44;101211.56;5028125;28;20675;-47
2022/06/18 05:52:45;;;;;;;7.78;4.38;;;;;;;19.28;73.26;101208.50;5011537;28;20161;-46
2022/06/18 05:55:30;;;;;;;4.32;3.50;;;;;;;19.39;74.73;101215.03;5005221;28;20204;-45
2022/06/18 05:58:09;;;;;;;4.90;3.75;;;;;;;19.47;74.29;101199.09;5011514;28;20263;-45
2022/06/18 06:00:42;;;;;;;5.57;3.53;;;;;;;19.49;72.44;101192.56;5028054;28;20803;-46
2022/06/18 06:03:08;;;;;;;8.30;3.88;;;;;;;19.62;73.20;101208.88;5011078;28;20598;-47
2022/06/18 06:05:34;;;;;;;5.47;4.10;;;;;;;19.91;72.41;101203.25;5012215;28;20276;-45
2022/06/18 06:08:01;;;;;;;8.40;3.95;;;;;;;20.01;72.22;101209.78;5027642;28;20293;-45
2022/06/18 06:13:18;;;;;;;6.07;4.22;;;;;;;20.24;72.69;101215.41;5010862;28;20255;-46
2022/06/18 06:15:44;;;;;;;3.92;3.60;;;;;;;20.49;70.92;101215.34;5011200;28;20219;-47
2022/06/18 06:18:12;;;;;;;5.63;4.43;;;;;;;20.62;70.85;101211.72;5027012;28;20180;-45
2022/06/18 06:20:40;;;;;;;6.32;4.30;;;;;;;20.74;70.53;101211.69;5012532;28;20164;-47
2022/06/18 06:23:07;;;;;;;5.13;4.13;;;;;;;20.68;70.40;101209.41;5011384;28;20191;-45
2022/06/18 06:25:33;;;;;;;7.18;4.32;;;;;;;20.68;70.40;101214.84;5011823;28;20200;-47
2022/06/18 06:27:59;;;;;;;6.55;4.15;;;;;;;21.18;69.82;101217.47;5012347;28;20210;-49
2022/06/18 06:30:26;;;;;;;7.50;4.03;;;;;;;20.98;70.37;101221.72;5010662;28;20176;-48
2022/06/18 06:32:51;;;;;;;7.10;4.57;;;;;;;20.99;69.67;101221.59;5012069;28;20259;-47
2022/06/18 06:35:17;;;;;;;6.15;3.50;;;;;;;21.37;70.69;101234.13;5011484;28;20307;-49
2022/06/18 06:37:42;;;;;;;10.85;4.43;;;;;;;21.17;70.11;101221.19;5012369;28;20173;-49
2022/06/18 06:40:09;;;;;;;8.07;4.25;;;;;;;21.46;69.29;101227.13;5011956;28;20168;-48
2022/06/18 06:42:47;;;;;;;10.57;4.97;;;;;;;21.55;69.21;101220.09;5011572;28;20614;-48
2022/06/18 06:45:17;;;;;;;8.15;4.90;;;;;;;21.60;67.65;101213.31;5011555;28;20195;-48
2022/06/18 06:47:43;;;;;;;11.40;5.07;;;;;;;21.81;67.57;101216.19;5011588;28;20267;-52
2022/06/18 06:50:10;;;;;;;6.65;5.05;;;;;;;21.72;68.39;101225.09;5011850;28;20346;-48
2022/06/18 06:52:35;;;;;;;5.78;4.80;;;;;;;22.06;68.02;101236.03;5011478;28;20487;-47
2022/06/18 06:57:44;;;;;;;8.10;5.18;;;;;;;22.03;68.02;101239.03;5012105;28;20183;-48
2022/06/18 07:00:12;;;;;;;10.07;5.15;;;;;;;22.30;66.98;101230.50;5011540;28;20169;-49
2022/06/18 07:02:38;;;;;;;6.85;5.38;;;;;;;22.26;67.00;101242.69;5011330;28;20528;-50
2022/06/18 07:05:04;;;;;;;7.95;5.90;;;;;;;22.36;66.22;101249.09;5010769;28;20717;-49
2022/06/18 07:07:30;;;;;;;7.22;5.35;;;;;;;22.51;66.27;101260.63;5011704;28;20168;-51
2022/06/18 07:09:56;;;;;;;11.85;6.55;;;;;;;22.27;66.28;101273.56;5011853;28;20176;-47
2022/06/18 07:12:21;;;;;;;10.07;5.93;;;;;;;22.90;65.04;101279.34;5010929;28;20171;-51
2022/06/18 07:14:47;;;;;;;17.02;5.80;;;;;;;22.94;65.10;101281.69;5010661;28;20275;-47
2022/06/18 07:17:17;;;;;;;7.55;5.90;;;;;;;23.02;65.02;101270.13;5011360;28;20233;-47
2022/06/18 07:19:43;;;;;;;8.60;5.93;;;;;;;22.76;66.04;101270.44;5011194;28;20172;-49
2022/06/18 07:22:10;;;;;;;7.22;6.10;;;;;;;22.50;66.10;101267.09;5011094;28;20204;-47
2022/06/18 07:24:36;;;;;;;12.38;6.00;;;;;;;23.03;65.08;101270.00;5010255;28;20174;-47
2022/06/18 07:27:02;;;;;;;8.90;5.72;;;;;;;22.74;66.03;101279.72;5009604;28;20535;-46
2022/06/18 07:29:27;;;;;;;9.60;5.70;;;;;;;23.01;64.68;101272.00;5010918;28;20173;-48
2022/06/18 07:31:53;;;;;;;12.18;5.78;;;;;;;23.08;64.16;101266.88;5011566;28;20376;-47
2022/06/18 07:34:18;;;;;;;9.70;5.43;;;;;;;23.42;63.23;101272.25;5010589;28;20184;-50
2022/06/18 07:36:44;;;;;;;6.65;5.55;;;;;;;22.90;64.22;101277.47;5010908;28;20573;-45
2022/06/18 07:39:09;;;;;;;6.15;4.90;;;;;;;23.43;63.25;101274.81;5011058;28;20176;-50
2022/06/18 07:41:41;;;;;;;8.85;5.10;;;;;;;22.89;64.07;101278.44;5010393;28;20298;-49
2022/06/18 07:44:06;;;;;;;13.27;4.82;;;;;;;23.12;64.31;101265.63;5010614;28;20168;-47
2022/06/18 07:46:33;;;;;;;7.75;4.30;;;;;;;23.32;63.92;101263.94;5008370;28;20267;-49
2022/06/18 07:48:58;;;;;;;7.40;4.15;;;;;;;23.78;63.48;101264.59;5010051;28;20184;-48
2022/06/18 07:51:26;;;;;;;8.85;4.20;;;;;;;23.89;62.45;101267.25;5010263;28;20164;-48
2022/06/18 07:53:53;;;;;;;9.90;4.30;;;;;;;23.80;61.12;101270.81;5008979;28;20172;-49
2022/06/18 07:56:19;;;;;;;9.57;3.80;;;;;;;24.03;60.29;101264.19;5008953;28;20206;-46
2022/06/18 07:58:45;;;;;;;7.45;3.78;;;;;;;23.41;62.69;101273.22;5010516;28;20208;-48
2022/06/18 08:01:10;;;;;;;6.05;3.70;;;;;;;23.92;62.57;101275.22;5009917;28;20250;-49
2022/06/18 08:03:36;;;;;;;6.70;3.83;;;;;;;23.42;64.43;101272.25;5009884;28;20210;-49
2022/06/18 08:06:02;;;;;;;7.32;4.10;;;;;;;23.62;64.47;101270.53;5010214;28;20184;-48
2022/06/18 08:08:28;;;;;;;7.88;3.97;;;;;;;23.91;63.40;101276.22;5010116;28;20180;-53
2022/06/18 08:10:54;;;;;;;6.03;4.32;;;;;;;23.32;65.05;101280.34;5009233;28;20656;-51
2022/06/18 08:13:20;;;;;;;10.27;4.85;;;;;;;23.44;63.03;101275.72;5009806;28;20176;-47
2022/06/18 08:15:47;;;;;;;9.45;4.18;;;;;;;24.35;61.99;101279.63;5010013;28;20231;-50
2022/06/18 08:18:13;;;;;;;7.00;4.47;;;;;;;24.24;63.04;101283.31;5009279;28;20188;-51
2022/06/18 08:20:41;;;;;;;7.55;4.40;;;;;;;23.57;64.86;101300.13;5009879;28;20183;-50
2022/06/18 08:23:07;;;;;;;11.90;4.82;;;;;;;24.03;64.21;101288.84;5009776;28;20211;-50
2022/06/18 08:25:35;;;;;;;8.90;4.60;;;;;;;24.31;62.57;101288.25;5009614;28;20207;-52
2022/06/18 08:28:02;;;;;;;8.82;5.13;;;;;;;23.83;63.35;101290.59;5010223;28;20211;-51
2022/06/18 08:30:29;;;;;;;10.13;5.28;;;;;;;23.90;63.79;101290.03;5010097;28;20255;-48
2022/06/18 08:32:54;;;;;;;9.68;4.50;;;;;;;24.24;63.45;101288.78;5009855;28;20168;-47
2022/06/18 08:35:20;;;;;;;7.55;4.50;;;;;;;24.42;62.69;101297.25;5009999;28;20245;-47
2022/06/18 08:37:45;;;;;;;9.43;4.43;;;;;;;24.99;61.91;101293.97;5009553;28;20646;-49
2022/06/18 08:40:45;;;;;;;6.72;4.03;;;;;;;24.84;60.44;101285.31;5010205;28;20168;-47
2022/06/18 08:43:28;;;;;;;8.68;4.05;;;;;;;24.90;60.43;101283.88;5009627;28;20270;-49
2022/06/18 08:45:56;;;;;;;8.25;3.88;;;;;;;24.98;60.07;101279.41;5010145;28;20184;-50
2022/06/18 08:48:41;;;;;;;8.00;3.70;;;;;;;24.60;60.32;101289.28;5014615;28;20191;-49
2022/06/18 08:51:22;;;;;;;6.47;3.90;;;;;;;24.72;61.58;101291.91;5016585;28;20168;-48
2022/06/18 08:53:47;;;;;;;9.70;3.55;;;;;;;25.22;60.01;101286.41;5015974;28;20259;-52
2022/06/18 08:56:21;;;;;;;9.38;3.50;;;;;;;24.88;60.71;101286.75;5016133;28;20230;-48
2022/06/18 08:58:49;;;;;;;8.10;3.88;;;;;;;25.14;59.46;101286.22;5016444;28;20168;-46
2022/06/18 09:01:18;;;;;;;6.47;3.35;;;;;;;25.12;60.72;101288.25;5016055;28;20195;-46
2022/06/18 09:04:02;;;;;;;11.35;3.65;;;;;;;25.37;59.71;101281.38;5015613;28;20220;-48
2022/06/18 09:06:49;;;;;;;9.00;3.78;;;;;;;25.61;59.48;101280.94;5015896;28;20682;-48
2022/06/18 09:09:25;;;;;;;7.45;3.53;;;;;;;25.29;60.08;101290.31;5016550;28;20171;-48
2022/06/18 09:12:01;;;;;;;8.20;3.13;;;;;;;24.77;61.75;101289.59;5016075;28;20183;-48
2022/06/18 09:14:30;;;;;;;9.38;2.72;;;;;;;25.14;60.05;101286.22;5014493;28;20172;-49
2022/06/18 09:17:14;;;;;;;5.25;2.72;;;;;;;24.95;60.29;101298.00;5016065;28;20621;-48
2022/06/18 09:19:42;;;;;;;8.02;2.60;;;;;;;25.66;59.03;101303.31;5016469;28;20553;-47
2022/06/18 09:22:15;;;;;;;11.57;3.10;;;;;;;25.35;58.96;101302.59;5016273;28;20250;-46
2022/06/18 09:24:51;;;;;;;5.75;2.80;;;;;;;25.29;58.47;101307.63;5015499;28;20187;-52
2022/06/18 09:27:30;;;;;;;5.57;2.40;;;;;;;25.92;57.74;101305.50;5015951;28;20176;-47
2022/06/18 09:30:08;;;;;;;5.07;2.40;;;;;;;25.88;56.89;101303.03;5015863;28;20184;-48
2022/06/18 09:32:44;;;;;;;8.23;2.90;;;;;;;25.06;60.04;101312.47;5016129;28;20678;-48
2022/06/18 09:35:23;;;;;;;6.97;2.45;;;;;;;25.53;57.98;101302.75;5015800;28;20561;-49
2022/06/18 09:38:29;;;;;;;7.35;2.70;;;;;;;25.27;58.88;101315.13;5016173;28;20172;-48
2022/06/18 09:41:02;;;;;;;7.88;2.35;;;;;;;25.68;59.83;101306.78;5015998;28;20322;-48
2022/06/18 09:43:50;;;;;;;5.00;2.10;;;;;;;25.76;59.63;101306.03;5010134;28;20898;-47
2022/06/18 09:46:35;;;;;;;6.55;2.10;;;;;;;25.16;60.04;101304.25;5005952;28;20346;-50
2022/06/18 09:49:00;;;;;;;4.63;2.33;;;;;;;25.37;60.46;101303.31;5031638;28;20206;-50
2022/06/18 09:51:37;;;;;;;4.20;1.63;;;;;;;24.71;61.58;101298.38;5035469;28;20172;-52
2022/06/18 09:54:06;;;;;;;4.93;1.70;;;;;;;25.16;60.98;101308.88;5035308;28;20669;-48
2022/06/18 09:56:38;;;;;;;5.18;1.83;;;;;;;25.24;61.30;101311.81;5034595;28;20274;-46
2022/06/18 09:59:27;;;;;;;7.47;1.58;;;;;;;25.59;59.09;101299.44;5032803;28;20199;-48
2022/06/18 10:01:53;;;;;;;6.05;1.42;;;;;;;26.04;57.42;101296.06;5033271;28;20202;-47
2022/06/18 10:07:18;;;;;;;5.72;1.50;;;;;;;25.19;60.84;101314.06;5032803;28;20202;-48
2022/06/18 10:09:58;;;;;;;1.50;1.02;;;;;;;25.81;59.16;101304.59;5033638;28;20619;-47
2022/06/18 10:12:34;;;;;;;2.42;0.98;;;;;;;25.32;58.86;101294.63;5032715;28;20436;-46
2022/06/18 10:15:03;;;;;;;1.63;1.10;;;;;;;25.07;61.47;101303.25;5033008;28;20673;-45
2022/06/18 10:17:47;;;;;;;3.83;0.93;;;;;;;25.44;59.85;101302.59;5031285;28;20214;-49
2022/06/18 10:21:09;;;;;;;3.03;0.80;;;;;;;26.12;57.86;101295.31;5032861;28;20238;-46
2022/06/18 10:23:57;;;;;;;1.40;0.75;;;;;;;26.00;57.17;101292.75;4999146;28;20314;-46
2022/06/18 10:26:41;;;;;;;3.35;1.08;;;;;;;25.19;58.16;101311.34;5031965;28;20218;-49
2022/06/18 10:29:17;;;;;;;2.40;0.60;;;;;;;24.95;58.56;101314.47;5032698;28;20547;-45
2022/06/18 10:31:52;;;;;;;1.08;0.60;;;;;;;25.29;58.44;101315.84;5033050;28;20172;-47
2022/06/18 10:34:43;;;;;;;1.85;0.77;;;;;;;24.54;59.78;101317.22;5031745;28;20540;-51
2022/06/18 10:37:44;;;;;;;2.88;0.93;;;;;;;24.83;60.19;101325.53;5032709;28;20171;-47
2022/06/18 10:40:12;;;;;;;2.58;0.82;;;;;;;24.77;57.57;101325.22;5024415;28;20199;-45
2022/06/18 10:43:01;;;;;;;2.35;0.88;;;;;;;25.16;56.64;101323.47;5032277;28;20624;-51
2022/06/18 10:45:58;;;;;;;2.72;0.90;;;;;;;25.56;56.61;101321.66;5032005;28;20554;-46
2022/06/18 10:48:27;;;;;;;3.92;1.10;;;;;;;25.03;57.71;101329.19;5031391;28;20268;-47
2022/06/18 10:50:57;;;;;;;2.92;0.90;;;;;;;25.68;56.22;101317.75;5031917;28;20199;-48
2022/06/18 10:53:26;;;;;;;4.53;0.70;;;;;;;25.78;56.05;101317.75;5031974;28;20182;-50
2022/06/18 10:56:04;;;;;;;6.70;1.00;;;;;;;26.02;55.24;101311.81;5031737;28;20234;-46
2022/06/18 10:58:30;;;;;;;1.40;0.80;;;;;;;25.96;55.97;101313.28;5031976;28;20159;-46
2022/06/18 11:01:03;;;;;;;3.85;1.13;;;;;;;25.72;56.58;101324.69;5032211;28;20191;-47
2022/06/18 11:03:31;;;;;;;4.53;1.20;;;;;;;24.65;57.16;101328.09;5031095;28;20317;-48
2022/06/18 11:05:58;;;;;;;2.28;0.88;;;;;;;24.99;57.05;101325.03;5031957;28;20306;-48
2022/06/18 11:08:28;;;;;;;5.22;1.05;;;;;;;25.54;57.35;101332.78;5031671;28;20168;-48
2022/06/18 11:11:04;;;;;;;6.32;1.10;;;;;;;25.01;58.39;101331.22;5014050;28;20607;-47
2022/06/18 11:13:44;;;;;;;2.63;0.90;;;;;;;25.90;55.66;101330.34;5031383;28;20233;-50
2022/06/18 11:16:23;;;;;;;8.30;1.13;;;;;;;25.95;56.64;101333.50;5031590;28;20198;-49
2022/06/18 11:19:00;;;;;;;2.30;0.70;;;;;;;25.31;56.84;101334.06;5032071;28;20189;-47
2022/06/18 11:21:31;;;;;;;4.13;1.00;;;;;;;26.01;56.66;101343.03;5031190;28;20345;-51
2022/06/18 11:24:34;;;;;;;9.63;1.00;;;;;;;25.79;56.49;101347.78;5010058;28;20192;-45
2022/06/18 11:27:04;;;;;;;2.38;0.90;;;;;;;26.03;56.09;101350.13;5010658;28;20187;-51
2022/06/18 11:29:37;;;;;;;4.53;0.90;;;;;;;25.54;56.98;101349.25;5011759;28;20543;-48
2022/06/18 11:32:12;;;;;;;1.33;0.70;;;;;;;25.87;55.14;101349.81;5011151;28;20176;-48
2022/06/18 11:34:45;;;;;;;1.20;0.70;;;;;;;25.47;56.93;101340.72;5009192;28;20191;-49
2022/06/18 11:37:24;;;;;;;2.63;1.00;;;;;;;26.10;54.41;101344.91;5009895;28;20259;-47
2022/06/18 11:39:54;;;;;;;2.75;0.52;;;;;;;25.02;55.55;101343.06;5007228;28;20663;-47
2022/06/18 11:42:26;;;;;;;1.58;0.52;;;;;;;25.29;53.98;101345.16;5029412;28;20206;-48
2022/06/18 11:44:57;;;;;;;4.32;0.70;;;;;;;24.89;55.00;101348.81;5024722;28;20208;-47
2022/06/18 11:47:32;;;;;;;3.95;0.65;;;;;;;25.41;54.46;101337.69;5013334;28;20188;-50
2022/06/18 11:50:07;;;;;;;2.53;0.85;;;;;;;25.82;54.58;101342.03;5030511;28;20684;-46
2022/06/18 11:52:41;;;;;;;3.85;1.13;;;;;;;25.46;55.53;101344.47;5031156;28;20236;-46
2022/06/18 11:55:22;;;;;;;3.13;0.85;;;;;;;25.15;55.64;101342.81;5030978;28;20409;-46
2022/06/18 11:57:57;;;;;;;4.47;0.70;;;;;;;25.54;54.47;101341.03;5030551;28;20175;-49
2022/06/18 12:00:28;;;;;;;1.15;0.80;;;;;;;25.42;54.74;101345.75;5020388;28;20544;-46
2022/06/18 12:03:06;;;;;;;2.90;1.10;;;;;;;25.16;54.94;101336.31;5010837;28;20719;-47